createdAt,value
2023-04-26T07:29:26.353Z,22.6
2023-04-26T07:35:21.640Z,22.6
2023-04-26T07:41:12.584Z,22.5
2023-04-26T07:47:06.277Z,22.4
2023-04-26T07:52:58.267Z,22.4
2023-04-26T07:58:51.780Z,22.3
2023-04-26T08:04:58.747Z,22.3
2023-04-26T08:10:51.781Z,22.1
2023-04-26T08:16:46.410Z,22.1
2023-04-26T08:22:39.075Z,22.1
2023-04-26T08:28:31.702Z,22
2023-04-26T08:34:24.056Z,21.9
2023-04-26T08:40:17.205Z,21.9
2023-04-26T08:46:11.885Z,21.8
2023-04-26T08:51:47.441Z,21.8
2023-04-26T08:57:40.462Z,21.7
2023-04-26T09:03:32.988Z,21.6
2023-04-26T09:09:27.367Z,21.6
2023-04-26T09:15:21.347Z,21.6
2023-04-26T09:20:59.196Z,21.5
2023-04-26T09:26:50.049Z,21.5
2023-04-26T09:32:44.082Z,21.4
2023-04-26T09:38:47.793Z,21.4
2023-04-26T09:44:25.217Z,21.3
2023-04-26T09:50:18.821Z,21.3
2023-04-26T09:56:24.208Z,21.3
2023-04-26T10:02:16.327Z,21.2
2023-04-26T10:08:10.418Z,21.2
2023-04-26T10:25:14.488Z,21.1
2023-04-26T10:31:13.321Z,21.1
2023-04-26T10:37:05.169Z,21
2023-04-26T10:42:58.932Z,21
2023-04-26T10:48:34.841Z,20.9
2023-04-26T10:54:27.163Z,20.9
2023-04-26T11:00:47.342Z,20.9
2023-04-26T11:06:46.782Z,20.9
2023-04-26T11:12:22.294Z,20.8
2023-04-26T11:17:46.858Z,20.8
2023-04-26T11:23:07.371Z,20.8
2023-04-26T11:28:42.704Z,20.8
2023-04-26T11:34:37.063Z,20.8
2023-04-26T11:40:27.686Z,20.8
2023-04-26T11:46:18.142Z,20.8
2023-04-26T11:52:11.312Z,20.7
2023-04-26T11:58:02.583Z,20.7
2023-04-26T12:03:55.748Z,20.7
2023-04-26T12:09:50.213Z,20.6
2023-04-26T12:15:42.197Z,20.6
2023-04-26T12:21:47.199Z,20.6
2023-04-26T12:27:24.564Z,20.6
2023-04-26T12:33:32.082Z,20.6
2023-04-26T12:39:23.990Z,20.6
2023-04-26T12:45:16.085Z,20.6
2023-04-26T12:51:08.857Z,20.6
2023-04-26T12:56:30.132Z,20.6
2023-04-26T13:02:08.546Z,20.5
2023-04-26T13:07:47.621Z,20.6
2023-04-26T13:13:07.607Z,20.5
2023-04-26T13:18:54.297Z,20.5
2023-04-26T13:24:45.752Z,20.5
2023-04-26T13:30:39.806Z,20.5
2023-04-26T13:36:36.394Z,20.5
2023-04-26T13:42:29.529Z,20.5
2023-04-26T13:48:21.051Z,20.4
2023-04-26T13:54:13.591Z,20.4
2023-04-26T14:00:05.003Z,20.4
2023-04-26T14:05:59.164Z,20.4
2023-04-26T14:12:00.742Z,20.4
2023-04-26T14:17:58.671Z,20.4
2023-04-26T14:23:50.800Z,20.4
2023-04-26T14:29:42.964Z,20.4
2023-04-26T14:35:36.670Z,20.4
2023-04-26T14:41:27.666Z,20.4
2023-04-26T14:47:38.447Z,20.4
2023-04-26T14:53:32.226Z,20.4
2023-04-26T14:59:27.210Z,20.8
2023-04-26T15:05:23.690Z,21.4
2023-04-26T15:11:11.805Z,22.4
2023-04-26T15:16:48.059Z,23.4
2023-04-26T15:22:40.625Z,24.1
2023-04-26T15:28:01.001Z,24.4
2023-04-26T15:33:53.911Z,24.8
2023-04-26T15:39:46.325Z,25.1
2023-04-26T15:45:39.320Z,25.3
2023-04-26T15:51:15.456Z,25.8
2023-04-26T15:57:09.586Z,26.3
2023-04-26T16:03:03.432Z,26.8
2023-04-26T16:09:23.743Z,27.1
2023-04-26T16:15:17.270Z,27.4
2023-04-26T16:21:10.147Z,27.8
2023-04-26T16:27:02.096Z,27.9
2023-04-26T16:32:56.741Z,28.1
2023-04-26T16:38:48.682Z,28.2
2023-04-26T16:44:40.428Z,28.3
2023-04-26T16:50:35.377Z,28.5
2023-04-26T16:56:27.328Z,28.8
2023-04-26T17:01:48.222Z,28.8
2023-04-26T17:07:14.810Z,28.8
2023-04-26T17:13:06.850Z,28.9
2023-04-26T17:18:58.567Z,28.9
2023-04-26T17:24:50.369Z,28.8
2023-04-26T17:30:42.306Z,28.9
2023-04-26T17:36:34.210Z,29.3
2023-04-26T17:42:25.970Z,29.6
2023-04-26T17:48:17.233Z,29.8
2023-04-26T17:54:11.714Z,30
2023-04-26T17:59:49.062Z,30.2
2023-04-26T18:05:44.401Z,30.3
2023-04-26T18:11:37.731Z,30.5
2023-04-26T18:17:30.448Z,30.6
2023-04-26T18:23:22.425Z,30.6
2023-04-26T18:29:14.281Z,30.6
2023-04-26T18:35:08.262Z,30.6
2023-04-26T18:41:00.094Z,30.5
2023-04-26T18:46:51.906Z,30.4
2023-04-26T18:52:44.922Z,30.3
2023-04-26T18:58:40.588Z,30.3
2023-04-26T19:04:19.495Z,30.1
2023-04-26T19:10:26.716Z,29.9
2023-04-26T19:16:21.313Z,29.6
2023-04-26T19:22:14.377Z,29.3
2023-04-26T19:28:08.262Z,29.1
2023-04-26T19:34:01.121Z,28.9
2023-04-26T19:39:55.638Z,28.6
2023-04-26T19:45:34.762Z,28.4
2023-04-26T19:51:13.235Z,28.2
2023-04-26T19:56:51.917Z,28
2023-04-26T20:02:46.292Z,27.4
2023-04-26T20:08:40.335Z,26.9
2023-04-26T20:14:33.261Z,26.6
2023-04-26T20:20:27.666Z,26.3
2023-04-26T20:26:05.538Z,26
2023-04-26T20:31:58.724Z,25.7
2023-04-26T20:37:53.279Z,25.4
2023-04-26T20:43:46.063Z,25.2
2023-04-26T20:49:38.460Z,25
2023-04-26T20:55:30.601Z,24.8
2023-04-26T21:01:23.558Z,24.6
2023-04-26T21:07:16.937Z,24.4
2023-04-26T21:13:08.960Z,24.2
2023-04-26T21:19:00.655Z,24.1
2023-04-26T21:24:51.178Z,23.9
2023-04-26T21:30:42.929Z,23.7
2023-04-26T21:36:19.954Z,23.5
2023-04-26T21:42:10.407Z,23.3
2023-04-26T21:48:08.092Z,23.2
2023-04-26T21:53:59.113Z,23.1
2023-04-26T21:59:50.959Z,22.9
2023-04-26T22:05:44.508Z,22.8
2023-04-26T22:11:36.263Z,22.6
2023-04-26T22:17:26.968Z,22.5
2023-04-26T22:23:19.066Z,22.4
2023-04-26T22:29:10.645Z,22.3
2023-04-26T22:35:16.243Z,22.2
2023-04-26T22:41:13.383Z,22.1
2023-04-26T22:47:04.844Z,22.1
2023-04-26T22:53:20.452Z,22
2023-04-26T22:58:56.286Z,21.9
2023-04-26T23:04:33.658Z,21.8
2023-04-26T23:10:24.377Z,21.8
2023-04-26T23:16:18.406Z,21.7
2023-04-26T23:21:54.136Z,21.6
2023-04-26T23:27:46.686Z,21.6
2023-04-26T23:33:38.631Z,21.6
2023-04-26T23:39:35.027Z,21.5
2023-04-26T23:45:10.429Z,21.5
2023-04-26T23:51:02.577Z,21.4
2023-04-26T23:56:53.498Z,21.4
